Time;durP1;ratioP1;P1;durP2;ratioP2;P2;SDS_P1;SDS_P2;PMS_P1;PMS_P2;Temp;Humidity;BMP_temperature;BMP_pressure;BME280_temperature;BME280_humidity;BME280_pressure;Samples;Min_cycle;Max_cycle;Signal;HPM_P1;HPM_P2
2023/07/08 00:01:17;;;;;;;12.73;11.48;;;23.20;92.10;;;;;;5044947;28;20037;-79
2023/07/08 00:03:43;;;;;;;13.45;11.30;;;23.10;92.10;;;;;;5039772;28;20029;-83
2023/07/08 00:06:22;;;;;;;12.43;11.02;;;23.10;92.00;;;;;;5040391;28;20075;-83
2023/07/08 00:08:48;;;;;;;13.57;11.70;;;23.10;91.90;;;;;;5041060;28;20450;-82
2023/07/08 00:11:16;;;;;;;13.45;11.75;;;23.10;91.90;;;;;;5040512;28;20033;-79
2023/07/08 00:13:42;;;;;;;12.25;10.85;;;23.10;91.90;;;;;;5041587;28;20031;-83
2023/07/08 00:16:13;;;;;;;12.68;10.68;;;23.10;91.80;;;;;;5040095;28;20116;-82
2023/07/08 00:18:39;;;;;;;12.07;10.88;;;23.00;91.80;;;;;;5039992;28;20388;-77
2023/07/08 00:21:10;;;;;;;13.88;11.05;;;23.10;92.10;;;;;;5040407;28;20040;-82
2023/07/08 00:23:36;;;;;;;11.60;10.50;;;23.10;91.80;;;;;;5042344;28;20041;-81
2023/07/08 00:26:08;;;;;;;12.85;11.13;;;23.10;91.90;;;;;;5039823;28;20091;-79
2023/07/08 00:28:34;;;;;;;12.60;11.20;;;23.10;91.80;;;;;;5072598;28;20037;-81
2023/07/08 00:31:00;;;;;;;11.82;10.57;;;23.00;91.80;;;;;;5040119;28;20518;-81
2023/07/08 00:33:26;;;;;;;11.60;10.50;;;23.00;91.80;;;;;;5044230;28;20034;-81
2023/07/08 00:35:52;;;;;;;11.10;10.00;;;23.10;91.80;;;;;;5039745;28;20409;-82
2023/07/08 00:38:28;;;;;;;12.02;10.80;;;23.10;91.80;;;;;;5037261;28;20486;-80
2023/07/08 00:40:59;;;;;;;12.70;10.52;;;23.10;91.70;;;;;;5056296;28;20451;-82
2023/07/08 00:43:40;;;;;;;12.13;10.63;;;23.00;91.40;;;;;;5039094;28;20124;-83
2023/07/08 00:46:27;;;;;;;12.07;10.55;;;23.00;91.60;;;;;;5073150;28;20052;-79
2023/07/08 00:49:08;;;;;;;12.50;10.90;;;23.00;91.70;;;;;;5071191;28;20041;-81
2023/07/08 00:51:39;;;;;;;11.77;10.63;;;23.00;91.60;;;;;;5042660;28;20167;-82
2023/07/08 00:54:10;;;;;;;11.43;10.23;;;23.00;91.60;;;;;;5076594;28;20487;-80
2023/07/08 00:56:48;;;;;;;12.68;10.57;;;23.10;91.60;;;;;;5045449;28;20045;-78
2023/07/08 00:59:21;;;;;;;11.63;10.43;;;23.00;91.50;;;;;;5044577;28;20095;-81
2023/07/08 01:01:48;;;;;;;11.23;10.13;;;23.00;91.50;;;;;;5047950;28;20595;-82
2023/07/08 01:04:52;;;;;;;12.15;10.82;;;23.10;91.50;;;;;;5042845;28;20041;-80
2023/07/08 01:07:21;;;;;;;12.07;10.90;;;23.00;91.40;;;;;;5037571;28;20029;-80
2023/07/08 01:09:51;;;;;;;11.52;10.43;;;22.90;91.40;;;;;;5044045;28;20044;-82
2023/07/08 01:12:23;;;;;;;12.93;10.93;;;22.90;91.50;;;;;;5057582;28;20492;-81
2023/07/08 01:14:53;;;;;;;11.65;10.48;;;22.90;91.60;;;;;;5075476;28;20033;-81
2023/07/08 01:17:21;;;;;;;10.82;9.75;;;22.90;91.60;;;;;;5043537;28;20124;-82
2023/07/08 01:19:48;;;;;;;11.52;10.32;;;22.90;91.60;;;;;;5078234;28;20032;-81
2023/07/08 01:22:14;;;;;;;14.45;10.60;;;23.00;91.50;;;;;;5044125;28;20053;-83
2023/07/08 01:24:43;;;;;;;11.55;10.00;;;22.90;91.30;;;;;;5042622;28;20055;-83
2023/07/08 01:27:13;;;;;;;13.25;10.73;;;23.00;91.40;;;;;;5074591;28;20029;-80
2023/07/08 01:29:39;;;;;;;11.93;10.73;;;22.90;91.40;;;;;;5043208;28;20121;-82
2023/07/08 01:32:06;;;;;;;13.25;11.13;;;23.00;91.40;;;;;;5038888;28;20095;-81
2023/07/08 01:34:33;;;;;;;11.55;10.45;;;23.00;91.30;;;;;;5026715;28;20116;-81
2023/07/08 01:37:01;;;;;;;11.63;10.13;;;23.10;91.10;;;;;;5039297;28;20045;-81
2023/07/08 01:39:30;;;;;;;11.38;9.73;;;23.00;91.00;;;;;;5057171;28;20041;-82
2023/07/08 01:41:57;;;;;;;10.88;9.80;;;23.10;90.90;;;;;;5043183;28;20033;-82
2023/07/08 01:44:33;;;;;;;10.75;9.68;;;23.10;90.80;;;;;;5041937;28;20118;-81
2023/07/08 01:47:13;;;;;;;12.23;10.85;;;23.10;90.80;;;;;;5044895;28;20044;-83
2023/07/08 01:49:42;;;;;;;11.57;10.38;;;23.00;90.70;;;;;;5058564;28;20446;-84
2023/07/08 01:52:08;;;;;;;10.65;9.55;;;23.00;90.70;;;;;;5024214;28;20082;-85
2023/07/08 01:54:34;;;;;;;10.98;9.82;;;23.00;90.60;;;;;;5040908;28;20033;-82
2023/07/08 01:57:02;;;;;;;11.77;10.18;;;23.00;90.80;;;;;;5043754;28;20159;-85
2023/07/08 01:59:29;;;;;;;11.65;10.25;;;23.00;90.80;;;;;;5041913;28;20044;-85
2023/07/08 02:01:55;;;;;;;11.07;9.90;;;23.10;90.90;;;;;;5028792;28;20178;-81
2023/07/08 02:04:23;;;;;;;13.90;10.05;;;23.10;90.80;;;;;;5028077;28;20128;-82
2023/07/08 02:06:57;;;;;;;11.73;10.52;;;23.10;90.70;;;;;;5075231;28;20400;-83
2023/07/08 02:09:27;;;;;;;13.25;10.50;;;23.00;90.50;;;;;;5072872;28;20033;-81
2023/07/08 02:11:54;;;;;;;13.30;10.15;;;23.00;90.50;;;;;;5043230;28;20034;-83
2023/07/08 02:14:20;;;;;;;12.07;10.40;;;23.00;90.70;;;;;;5041944;28;20048;-84
2023/07/08 02:16:47;;;;;;;12.65;11.15;;;23.00;90.70;;;;;;5042010;28;20404;-84
2023/07/08 02:19:13;;;;;;;13.90;10.38;;;23.00;90.50;;;;;;5042866;28;20041;-81
2023/07/08 02:21:39;;;;;;;10.95;9.70;;;23.00;90.60;;;;;;5041275;28;20095;-81
2023/07/08 02:24:06;;;;;;;11.25;9.60;;;23.10;90.40;;;;;;5040839;28;20075;-82
2023/07/08 02:26:32;;;;;;;11.70;10.48;;;23.10;90.40;;;;;;5040745;28;20557;-80
2023/07/08 02:28:59;;;;;;;14.43;10.65;;;23.10;90.50;;;;;;5040859;28;20036;-80
2023/07/08 02:31:25;;;;;;;11.63;10.35;;;23.10;90.70;;;;;;5040319;28;20545;-79
2023/07/08 02:33:52;;;;;;;11.82;10.63;;;23.20;90.30;;;;;;5041960;28;20380;-80
2023/07/08 02:36:18;;;;;;;12.55;10.65;;;23.20;90.30;;;;;;5042039;28;20036;-80
2023/07/08 02:38:44;;;;;;;11.60;9.98;;;23.20;90.00;;;;;;5037535;28;20040;-80
2023/07/08 02:41:11;;;;;;;11.75;10.23;;;23.20;90.20;;;;;;5073881;28;20029;-81
2023/07/08 02:43:38;;;;;;;12.13;10.43;;;23.20;90.00;;;;;;5042136;28;20029;-81
2023/07/08 02:46:05;;;;;;;11.70;10.45;;;23.20;90.00;;;;;;5040949;28;20037;-81
2023/07/08 02:48:31;;;;;;;11.77;10.52;;;23.30;90.00;;;;;;5041906;28;20116;-81
2023/07/08 02:51:02;;;;;;;12.65;11.27;;;23.30;89.70;;;;;;5072692;28;20120;-82
2023/07/08 02:53:28;;;;;;;13.48;10.57;;;23.30;90.00;;;;;;5043605;28;20035;-82
2023/07/08 02:55:54;;;;;;;11.60;10.40;;;23.30;90.00;;;;;;5073378;28;20427;-82
2023/07/08 02:58:21;;;;;;;12.65;11.35;;;23.30;90.00;;;;;;5041379;28;20040;-83
2023/07/08 03:00:52;;;;;;;12.48;11.15;;;23.30;89.90;;;;;;5040290;28;20037;-78
2023/07/08 03:03:18;;;;;;;12.88;10.98;;;23.20;89.40;;;;;;5026576;28;20040;-82
2023/07/08 03:05:53;;;;;;;17.30;12.30;;;23.20;89.50;;;;;;5041206;28;20047;-80
2023/07/08 03:08:19;;;;;;;12.30;10.95;;;23.10;89.70;;;;;;5044269;28;21039;-81
2023/07/08 03:10:48;;;;;;;14.15;11.65;;;23.20;89.60;;;;;;5073341;28;20029;-82
2023/07/08 03:13:14;;;;;;;12.35;10.57;;;23.20;90.00;;;;;;5039932;28;20048;-83
2023/07/08 03:15:44;;;;;;;12.23;10.93;;;23.20;89.90;;;;;;5040269;28;20061;-83
2023/07/08 03:18:11;;;;;;;13.25;11.85;;;23.20;89.90;;;;;;5071562;28;20068;-83
2023/07/08 03:20:40;;;;;;;12.77;10.52;;;23.20;89.70;;;;;;5040107;28;20064;-82
2023/07/08 03:23:06;;;;;;;12.38;11.02;;;23.20;89.90;;;;;;5043304;28;20128;-83
2023/07/08 03:25:32;;;;;;;12.77;11.13;;;23.30;89.90;;;;;;5044106;28;20381;-82
2023/07/08 03:27:59;;;;;;;14.27;11.30;;;23.30;89.70;;;;;;5041975;28;20029;-81
2023/07/08 03:30:27;;;;;;;13.80;12.20;;;23.30;89.50;;;;;;5042399;28;20091;-81
2023/07/08 03:32:54;;;;;;;15.75;12.20;;;23.30;89.70;;;;;;5039488;28;20120;-80
2023/07/08 03:35:22;;;;;;;14.27;11.68;;;23.30;90.00;;;;;;5071411;28;20522;-82
2023/07/08 03:37:48;;;;;;;12.52;11.23;;;23.30;89.90;;;;;;5054738;28;20033;-86
2023/07/08 03:40:14;;;;;;;13.27;11.23;;;23.40;89.50;;;;;;5039499;28;20040;-86
2023/07/08 03:42:40;;;;;;;12.48;11.07;;;23.60;89.00;;;;;;5037256;28;20032;-85
2023/07/08 03:45:06;;;;;;;11.75;10.63;;;23.80;88.40;;;;;;5035949;28;20599;-87
2023/07/08 03:47:32;;;;;;;12.98;10.68;;;23.90;88.30;;;;;;5038001;28;20531;-87
2023/07/08 03:49:59;;;;;;;13.38;11.25;;;24.10;88.20;;;;;;5036743;28;20035;-85
2023/07/08 03:52:25;;;;;;;12.48;11.18;;;24.30;87.30;;;;;;5072958;28;20041;-84
2023/07/08 03:54:51;;;;;;;14.80;11.32;;;24.40;86.50;;;;;;5039553;28;20038;-86
2023/07/08 03:57:17;;;;;;;11.88;10.65;;;24.40;85.70;;;;;;5070115;28;20066;-87
2023/07/08 03:59:46;;;;;;;13.32;10.77;;;24.60;85.00;;;;;;5026345;28;20025;-88
2023/07/08 04:02:13;;;;;;;12.90;11.60;;;24.80;85.10;;;;;;5038421;28;20025;-84
2023/07/08 04:04:39;;;;;;;11.90;10.70;;;24.80;83.40;;;;;;5009355;28;20123;-82
2023/07/08 04:07:06;;;;;;;12.77;11.18;;;24.80;83.10;;;;;;5040284;28;20025;-84
2023/07/08 04:09:32;;;;;;;11.45;10.27;;;24.60;83.40;;;;;;5037072;28;20036;-83
2023/07/08 04:11:59;;;;;;;12.20;10.63;;;24.60;84.00;;;;;;5040152;28;20033;-83
2023/07/08 04:14:25;;;;;;;11.70;10.50;;;24.60;83.50;;;;;;5037495;28;20493;-83
2023/07/08 04:16:58;;;;;;;11.73;10.52;;;24.50;83.90;;;;;;5039268;28;20474;-83
2023/07/08 04:19:26;;;;;;;11.88;10.18;;;24.40;84.00;;;;;;5037147;28;20045;-76
2023/07/08 04:21:53;;;;;;;11.25;10.13;;;24.40;84.70;;;;;;5039972;28;20080;-84
2023/07/08 04:24:19;;;;;;;12.32;10.60;;;24.30;84.30;;;;;;5040296;28;20033;-78
2023/07/08 04:26:47;;;;;;;13.05;10.27;;;24.30;85.00;;;;;;5044540;28;20029;-82
2023/07/08 04:29:16;;;;;;;11.75;10.55;;;24.30;84.70;;;;;;5043205;28;20029;-85
2023/07/08 04:31:42;;;;;;;11.38;10.10;;;24.40;84.40;;;;;;5044596;28;20108;-83
2023/07/08 04:34:08;;;;;;;10.60;9.50;;;24.50;84.50;;;;;;5042207;28;20422;-84
2023/07/08 04:36:34;;;;;;;13.50;10.13;;;24.70;84.50;;;;;;5042409;28;20132;-83
2023/07/08 04:39:02;;;;;;;10.20;9.07;;;24.90;83.30;;;;;;5045483;28;20082;-85
2023/07/08 04:41:28;;;;;;;12.10;10.32;;;24.90;82.80;;;;;;5041252;28;20044;-83
2023/07/08 04:43:57;;;;;;;12.20;10.48;;;24.80;82.70;;;;;;5043175;28;20348;-86
2023/07/08 04:46:36;;;;;;;11.90;10.55;;;24.50;83.50;;;;;;5044904;28;20381;-77
2023/07/08 04:49:04;;;;;;;11.50;10.27;;;24.50;83.80;;;;;;5042362;28;20041;-77
2023/07/08 04:51:30;;;;;;;11.35;10.25;;;24.40;83.90;;;;;;5043256;28;20542;-84
2023/07/08 04:53:56;;;;;;;11.90;10.70;;;24.40;83.90;;;;;;5040377;28;20037;-83
2023/07/08 04:56:23;;;;;;;11.95;10.75;;;24.40;84.20;;;;;;5045693;28;20099;-84
2023/07/08 04:58:50;;;;;;;11.07;9.98;;;24.30;83.70;;;;;;5043857;28;20645;-83
2023/07/08 05:01:16;;;;;;;10.88;9.77;;;24.20;84.20;;;;;;5043567;28;20030;-84
2023/07/08 05:03:42;;;;;;;12.25;9.85;;;24.20;84.20;;;;;;5058080;28;20048;-84
2023/07/08 05:06:08;;;;;;;11.25;10.15;;;24.10;84.40;;;;;;5043304;28;20041;-84
2023/07/08 05:08:33;;;;;;;11.35;10.15;;;23.90;84.60;;;;;;5041008;28;20029;-82
2023/07/08 05:10:59;;;;;;;13.10;10.98;;;23.90;85.20;;;;;;5073268;28;20047;-85
2023/07/08 05:13:25;;;;;;;11.82;10.05;;;23.80;84.90;;;;;;5041671;28;20342;-88
2023/07/08 05:15:51;;;;;;;11.50;10.40;;;23.60;85.30;;;;;;5043486;28;20036;-83
2023/07/08 05:18:17;;;;;;;11.23;9.88;;;23.60;85.80;;;;;;5042705;28;20033;-85
2023/07/08 05:20:50;;;;;;;12.30;10.93;;;23.60;86.50;;;;;;5041055;28;20478;-82
2023/07/08 05:23:17;;;;;;;13.35;10.85;;;23.60;87.00;;;;;;5039897;28;20060;-83
2023/07/08 05:25:43;;;;;;;12.75;10.55;;;23.60;86.70;;;;;;5042533;28;20090;-83
2023/07/08 05:28:09;;;;;;;10.88;9.77;;;23.70;86.10;;;;;;5042074;28;20041;-85
2023/07/08 05:30:35;;;;;;;11.38;10.18;;;23.60;86.40;;;;;;5040713;28;20025;-85
2023/07/08 05:33:01;;;;;;;11.15;10.05;;;23.50;85.90;;;;;;5041767;28;20499;-81
2023/07/08 05:35:27;;;;;;;10.95;9.85;;;23.40;86.10;;;;;;5040898;28;20122;-82
2023/07/08 05:37:53;;;;;;;11.80;9.77;;;23.30;85.90;;;;;;5041409;28;20029;-86
2023/07/08 05:40:19;;;;;;;10.75;9.60;;;23.30;86.60;;;;;;5041077;28;20052;-82
2023/07/08 05:42:45;;;;;;;11.95;9.70;;;23.30;86.80;;;;;;5042325;28;20703;-84
2023/07/08 05:45:11;;;;;;;10.68;8.85;;;23.40;87.00;;;;;;5044729;28;20167;-89
2023/07/08 05:47:37;;;;;;;10.30;9.20;;;23.40;87.10;;;;;;5041276;28;20056;-83
2023/07/08 05:50:04;;;;;;;10.43;9.25;;;23.40;87.10;;;;;;5040292;28;21510;-82
2023/07/08 05:52:30;;;;;;;12.85;9.55;;;23.50;86.80;;;;;;5056822;28;20029;-89
2023/07/08 05:54:56;;;;;;;11.00;9.90;;;23.50;86.50;;;;;;5040797;28;20034;-81
2023/07/08 05:57:23;;;;;;;10.32;9.32;;;23.50;86.20;;;;;;5043322;28;20404;-83
2023/07/08 05:59:50;;;;;;;9.77;8.75;;;23.60;86.30;;;;;;5041853;28;20036;-83
2023/07/08 06:02:19;;;;;;;11.63;9.27;;;23.60;86.10;;;;;;5039581;28;20041;-83
2023/07/08 06:04:45;;;;;;;11.93;9.50;;;23.60;86.50;;;;;;5039598;28;20133;-83
2023/07/08 06:07:11;;;;;;;9.98;8.93;;;23.60;86.40;;;;;;5042359;28;20240;-79
2023/07/08 06:09:37;;;;;;;10.27;9.27;;;23.70;86.20;;;;;;5041678;28;20660;-80
2023/07/08 06:12:03;;;;;;;10.02;9.02;;;23.60;85.70;;;;;;5042286;28;20037;-74
2023/07/08 06:14:29;;;;;;;12.13;10.00;;;23.60;86.00;;;;;;5042093;28;20033;-74
2023/07/08 06:16:55;;;;;;;10.88;9.52;;;23.70;85.60;;;;;;5040286;28;20026;-74
2023/07/08 06:19:21;;;;;;;12.00;9.32;;;23.70;85.30;;;;;;5040842;28;20044;-73
2023/07/08 06:21:47;;;;;;;9.63;8.73;;;23.70;85.50;;;;;;5039933;28;20056;-73
2023/07/08 06:24:13;;;;;;;11.63;9.90;;;23.70;85.50;;;;;;5039931;28;20037;-72
2023/07/08 06:26:39;;;;;;;9.60;8.60;;;23.50;84.30;;;;;;5039176;28;20029;-74
2023/07/08 06:29:05;;;;;;;9.60;8.60;;;23.50;84.60;;;;;;5041224;28;20560;-75
2023/07/08 06:31:31;;;;;;;9.52;8.18;;;23.50;84.90;;;;;;5075375;28;20032;-75
2023/07/08 06:33:57;;;;;;;8.90;8.00;;;23.50;84.60;;;;;;5041725;28;20036;-77
2023/07/08 06:36:23;;;;;;;10.20;8.15;;;23.60;84.70;;;;;;5037446;28;20033;-77
2023/07/08 06:38:49;;;;;;;9.52;8.10;;;23.40;84.70;;;;;;5036721;28;20449;-79
2023/07/08 06:41:15;;;;;;;9.63;8.73;;;23.30;84.90;;;;;;5041272;28;20082;-74
2023/07/08 06:43:41;;;;;;;9.82;8.32;;;23.30;85.50;;;;;;5039702;28;20522;-75
2023/07/08 06:46:11;;;;;;;10.32;9.10;;;23.40;86.00;;;;;;5041923;28;20033;-73
2023/07/08 06:48:37;;;;;;;10.60;8.55;;;23.40;85.20;;;;;;5040624;28;20033;-74
2023/07/08 06:51:03;;;;;;;9.38;8.10;;;23.30;84.60;;;;;;5040251;28;20530;-80
2023/07/08 06:53:29;;;;;;;9.77;8.40;;;23.40;85.50;;;;;;5070660;28;20556;-79
2023/07/08 06:55:55;;;;;;;10.75;7.93;;;23.50;85.40;;;;;;5025719;28;20128;-77
2023/07/08 06:58:21;;;;;;;10.30;8.20;;;23.40;84.90;;;;;;5040610;28;20079;-77
2023/07/08 07:00:47;;;;;;;21.02;8.48;;;23.40;85.00;;;;;;5038672;28;20048;-78
2023/07/08 07:03:13;;;;;;;8.63;7.72;;;23.50;85.50;;;;;;5042631;28;20071;-80
2023/07/08 07:05:40;;;;;;;8.55;7.65;;;23.50;85.20;;;;;;5039872;28;20567;-81
2023/07/08 07:08:07;;;;;;;9.70;8.57;;;23.50;84.60;;;;;;5035819;28;20037;-81
2023/07/08 07:10:34;;;;;;;9.05;8.15;;;23.30;84.60;;;;;;5024315;28;20462;-80
2023/07/08 07:13:00;;;;;;;9.57;8.20;;;23.40;84.90;;;;;;5036830;28;20471;-81
2023/07/08 07:15:26;;;;;;;10.93;7.63;;;23.50;84.40;;;;;;5036226;28;20038;-79
2023/07/08 07:17:52;;;;;;;10.20;7.90;;;23.60;85.20;;;;;;5037695;28;20030;-84
2023/07/08 07:20:18;;;;;;;9.68;7.95;;;23.60;84.40;;;;;;5039266;28;20032;-72
2023/07/08 07:22:44;;;;;;;8.52;7.47;;;23.50;83.80;;;;;;5039626;28;20056;-75
2023/07/08 07:25:10;;;;;;;8.60;7.75;;;23.60;84.00;;;;;;5040855;28;20033;-73
2023/07/08 07:27:37;;;;;;;11.30;8.13;;;23.60;83.70;;;;;;5035263;28;20533;-73
2023/07/08 07:30:04;;;;;;;8.15;7.32;;;23.60;83.00;;;;;;5039788;28;20127;-73
2023/07/08 07:32:32;;;;;;;9.73;7.28;;;23.60;84.20;;;;;;5038387;28;20054;-73
2023/07/08 07:34:59;;;;;;;10.43;7.72;;;23.60;82.30;;;;;;5038730;28;20029;-72
2023/07/08 07:37:25;;;;;;;8.10;7.30;;;23.60;82.10;;;;;;5039808;28;20048;-74
2023/07/08 07:39:51;;;;;;;8.32;7.38;;;23.50;82.10;;;;;;5038597;28;20072;-74
2023/07/08 07:42:19;;;;;;;8.45;7.55;;;23.50;81.90;;;;;;5040187;28;20041;-74
2023/07/08 07:44:45;;;;;;;10.07;7.35;;;23.60;82.70;;;;;;5039292;28;20125;-73
2023/07/08 07:47:12;;;;;;;7.78;6.97;;;23.70;82.20;;;;;;5069949;28;20041;-74
2023/07/08 07:49:38;;;;;;;8.40;7.50;;;23.70;81.70;;;;;;5039970;28;20037;-74
2023/07/08 07:52:05;;;;;;;9.30;7.00;;;23.80;82.40;;;;;;5040190;28;20161;-74
2023/07/08 07:54:31;;;;;;;7.75;6.57;;;23.90;81.90;;;;;;5038875;28;20572;-76
2023/07/08 07:56:57;;;;;;;8.40;7.13;;;23.90;81.50;;;;;;5040385;28;20033;-75
2023/07/08 07:59:23;;;;;;;7.35;6.63;;;24.00;81.10;;;;;;5038487;28;20086;-76
2023/07/08 08:01:49;;;;;;;9.35;6.93;;;24.00;81.40;;;;;;5038878;28;20041;-75
2023/07/08 08:04:15;;;;;;;6.78;6.18;;;24.00;80.10;;;;;;5039384;28;20072;-74
2023/07/08 08:06:41;;;;;;;7.32;6.63;;;24.10;80.70;;;;;;5038969;28;20033;-74
2023/07/08 08:09:07;;;;;;;6.95;6.35;;;24.10;80.60;;;;;;5036526;28;20660;-74
2023/07/08 08:11:34;;;;;;;7.20;6.45;;;24.20;79.50;;;;;;5038325;28;20033;-74
2023/07/08 08:14:00;;;;;;;6.80;5.82;;;24.10;79.40;;;;;;5039560;28;20079;-75
2023/07/08 08:16:26;;;;;;;7.50;6.20;;;24.10;79.80;;;;;;5036751;28;20052;-74
2023/07/08 08:18:52;;;;;;;8.70;6.57;;;24.20;79.90;;;;;;5038231;28;20504;-76
2023/07/08 08:21:18;;;;;;;6.95;6.22;;;24.10;79.00;;;;;;5041134;28;20051;-75
2023/07/08 08:23:44;;;;;;;7.03;6.18;;;24.20;79.50;;;;;;5038651;28;20516;-71
2023/07/08 08:26:10;;;;;;;8.02;6.38;;;24.20;80.30;;;;;;5035141;28;20037;-75
2023/07/08 08:28:36;;;;;;;7.50;6.68;;;24.20;80.00;;;;;;5040294;28;20040;-75
2023/07/08 08:31:02;;;;;;;7.25;6.55;;;24.20;80.40;;;;;;5039540;28;20050;-74
2023/07/08 08:33:28;;;;;;;8.27;6.43;;;24.20;79.00;;;;;;5036984;28;20060;-73
2023/07/08 08:35:54;;;;;;;10.23;6.80;;;24.10;79.20;;;;;;5037361;28;20094;-73
2023/07/08 08:38:20;;;;;;;6.82;6.22;;;24.20;79.50;;;;;;5069827;28;20029;-72
2023/07/08 08:40:46;;;;;;;8.52;7.07;;;24.10;78.40;;;;;;5038865;28;20568;-73
2023/07/08 08:43:23;;;;;;;7.25;6.45;;;24.00;79.40;;;;;;5039471;28;20057;-72
2023/07/08 08:45:58;;;;;;;9.15;6.65;;;24.00;79.40;;;;;;5038704;28;20047;-71
2023/07/08 08:48:24;;;;;;;8.95;7.10;;;24.00;79.90;;;;;;5040351;28;20099;-71
2023/07/08 08:50:55;;;;;;;7.65;6.72;;;24.00;78.50;;;;;;5040106;28;20090;-72
2023/07/08 08:53:22;;;;;;;8.38;6.93;;;23.90;79.60;;;;;;5039048;28;20057;-73
2023/07/08 08:55:57;;;;;;;7.72;6.60;;;24.00;80.00;;;;;;5041729;28;20028;-73
2023/07/08 08:58:23;;;;;;;7.47;6.68;;;24.00;80.40;;;;;;5043173;28;20460;-72
2023/07/08 09:00:59;;;;;;;8.40;6.40;;;24.00;80.30;;;;;;5040729;28;20040;-72
2023/07/08 09:03:34;;;;;;;9.82;6.15;;;23.90;80.50;;;;;;5042549;28;20763;-73
2023/07/08 09:06:00;;;;;;;;;;;24.00;80.90;;;;;;5051788;28;20040;-73
2023/07/08 09:08:36;;;;;;;8.35;6.40;;;24.10;80.70;;;;;;5040962;28;20308;-76
2023/07/08 09:11:37;;;;;;;8.68;7.05;;;24.10;80.60;;;;;;5044846;28;20048;-78
2023/07/08 09:14:04;;;;;;;11.70;7.65;;;24.10;80.50;;;;;;5026667;28;20041;-77
2023/07/08 09:16:42;;;;;;;7.90;6.95;;;24.10;80.50;;;;;;5047801;28;20037;-74
2023/07/08 09:19:26;;;;;;;9.75;7.25;;;24.10;80.70;;;;;;5044373;28;20642;-76
2023/07/08 09:22:11;;;;;;;8.50;6.90;;;24.10;80.60;;;;;;5046011;28;20099;-75
2023/07/08 09:24:45;;;;;;;9.15;7.28;;;24.10;80.50;;;;;;5057183;28;20148;-74
2023/07/08 09:27:11;;;;;;;8.80;6.55;;;24.10;79.90;;;;;;5045243;28;20036;-76
2023/07/08 09:29:37;;;;;;;7.88;6.57;;;24.20;80.20;;;;;;5042461;28;20037;-75
2023/07/08 09:32:16;;;;;;;8.60;6.57;;;24.20;79.90;;;;;;5043665;28;20025;-75
2023/07/08 09:34:50;;;;;;;7.03;6.35;;;24.30;79.80;;;;;;5062228;28;20059;-73
2023/07/08 09:37:23;;;;;;;10.38;6.70;;;24.30;79.70;;;;;;5043803;28;20124;-74
2023/07/08 09:39:49;;;;;;;7.63;6.88;;;24.30;79.40;;;;;;5043877;28;20033;-74
2023/07/08 09:42:16;;;;;;;7.32;6.30;;;24.40;79.30;;;;;;5045619;28;20041;-75
2023/07/08 09:44:45;;;;;;;8.18;6.72;;;24.40;79.70;;;;;;5041932;28;20044;-74
2023/07/08 09:47:35;;;;;;;7.63;6.65;;;24.50;79.10;;;;;;5076105;28;20048;-75
2023/07/08 09:50:10;;;;;;;6.93;6.22;;;24.60;78.30;;;;;;5046068;28;20055;-74
2023/07/08 09:52:36;;;;;;;7.53;6.15;;;24.60;78.00;;;;;;5045284;28;20033;-75
2023/07/08 09:55:02;;;;;;;6.63;5.72;;;24.60;78.10;;;;;;5044111;28;20044;-76
2023/07/08 09:57:33;;;;;;;7.70;6.00;;;24.50;77.90;;;;;;5045496;28;20040;-75
2023/07/08 10:00:06;;;;;;;6.50;5.85;;;24.60;78.00;;;;;;5073866;28;20035;-76
2023/07/08 10:02:52;;;;;;;;;;;24.70;76.80;;;;;;5045221;28;20037;-75
2023/07/08 10:05:25;;;;;;;7.15;5.80;;;24.70;75.80;;;;;;5043288;28;19921;-74
2023/07/08 10:07:55;;;;;;;7.32;5.75;;;24.60;76.20;;;;;;5042651;28;20032;-74
2023/07/08 10:10:30;;;;;;;7.50;5.60;;;24.60;76.20;;;;;;5045013;28;20033;-74
2023/07/08 10:13:00;;;;;;;6.07;5.47;;;24.70;77.60;;;;;;5044696;28;20033;-76
2023/07/08 10:15:35;;;;;;;6.68;5.93;;;24.80;76.80;;;;;;5045184;28;20044;-74
2023/07/08 10:18:02;;;;;;;5.82;5.32;;;24.80;76.30;;;;;;5043733;28;20033;-74
2023/07/08 10:20:46;;;;;;;5.65;5.15;;;24.90;75.70;;;;;;5041503;28;20083;-75
2023/07/08 10:23:18;;;;;;;6.93;5.35;;;25.00;75.60;;;;;;5027898;28;20060;-75
2023/07/08 10:25:57;;;;;;;5.60;5.10;;;25.00;75.20;;;;;;5043193;28;20048;-75
2023/07/08 10:28:43;;;;;;;7.20;5.43;;;24.90;74.50;;;;;;5058599;28;20060;-74
2023/07/08 10:31:31;;;;;;;6.93;5.35;;;24.80;74.80;;;;;;5041766;28;20033;-72
2023/07/08 10:34:31;;;;;;;5.90;5.30;;;24.80;75.30;;;;;;5040812;28;20033;-75
2023/07/08 10:37:30;;;;;;;6.55;5.93;;;24.90;75.30;;;;;;5042490;28;20043;-74
2023/07/08 10:40:04;;;;;;;6.97;5.90;;;24.90;73.80;;;;;;5042988;28;20068;-74
2023/07/08 10:42:30;;;;;;;6.32;5.68;;;25.00;74.40;;;;;;5025436;28;20435;-78
2023/07/08 10:45:23;;;;;;;6.45;5.85;;;24.90;73.60;;;;;;5041179;28;20047;-81
2023/07/08 10:47:49;;;;;;;8.60;5.65;;;24.90;74.90;;;;;;5043572;28;20037;-80
2023/07/08 10:50:47;;;;;;;6.22;5.63;;;24.90;75.00;;;;;;5040312;28;20094;-82
2023/07/08 10:53:31;;;;;;;5.80;5.20;;;24.80;74.20;;;;;;5045494;28;20055;-81
2023/07/08 10:56:23;;;;;;;6.20;5.25;;;24.80;73.20;;;;;;5045964;28;20028;-83
2023/07/08 10:58:48;;;;;;;5.60;5.10;;;24.80;72.80;;;;;;5046794;28;20033;-79
2023/07/08 11:01:23;;;;;;;5.82;4.75;;;24.80;71.50;;;;;;5045993;28;20037;-82
2023/07/08 11:04:13;;;;;;;5.25;4.78;;;24.80;72.30;;;;;;5040980;28;20025;-80
2023/07/08 11:06:55;;;;;;;6.13;4.75;;;24.80;71.80;;;;;;5037733;28;20033;-81
2023/07/08 11:09:51;;;;;;;5.95;5.05;;;24.80;72.90;;;;;;5039187;28;20132;-83
2023/07/08 11:12:35;;;;;;;;;;;24.90;73.20;;;;;;5059831;28;20128;-86
2023/07/08 11:15:25;;;;;;;6.03;4.95;;;25.00;72.20;;;;;;5038293;28;20453;-82
2023/07/08 11:18:22;;;;;;;4.70;4.30;;;25.00;72.40;;;;;;5041627;28;20033;-85
2023/07/08 11:21:18;;;;;;;5.65;3.80;;;25.00;72.90;;;;;;5038953;28;20092;-85
2023/07/08 11:23:53;;;;;;;5.45;4.13;;;25.00;72.70;;;;;;5027144;28;20534;-82
2023/07/08 11:26:30;;;;;;;4.18;3.85;;;25.00;73.40;;;;;;5039975;28;20036;-80
2023/07/08 11:28:59;;;;;;;4.20;3.80;;;25.10;73.40;;;;;;5041782;28;20496;-78
2023/07/08 11:31:28;;;;;;;4.13;3.53;;;25.10;72.10;;;;;;5023552;28;21488;-77
2023/07/08 11:33:56;;;;;;;4.30;3.47;;;25.10;72.10;;;;;;5039467;28;20029;-78
2023/07/08 11:36:24;;;;;;;3.72;3.40;;;25.10;72.00;;;;;;5040760;28;20111;-78
2023/07/08 11:38:53;;;;;;;3.55;3.25;;;25.10;71.60;;;;;;5038878;28;20531;-78
2023/07/08 11:41:28;;;;;;;3.53;3.20;;;25.00;71.70;;;;;;5040706;28;20033;-76
2023/07/08 11:44:04;;;;;;;6.05;3.10;;;24.90;70.00;;;;;;5021484;28;20041;-78
2023/07/08 11:46:34;;;;;;;3.47;3.17;;;24.90;70.60;;;;;;5039620;28;20041;-78
2023/07/08 11:49:04;;;;;;;5.93;3.50;;;24.80;68.90;;;;;;5040514;28;20138;-81
2023/07/08 11:51:37;;;;;;;4.25;3.47;;;24.90;70.20;;;;;;5039662;28;20036;-76
2023/07/08 11:54:31;;;;;;;5.57;3.60;;;24.80;68.80;;;;;;5039134;28;20450;-75
2023/07/08 11:56:56;;;;;;;4.20;3.30;;;25.00;70.90;;;;;;5044925;28;20029;-77
2023/07/08 11:59:24;;;;;;;3.65;3.30;;;24.90;68.90;;;;;;5042260;28;20037;-77
2023/07/08 12:01:50;;;;;;;3.90;3.50;;;24.90;69.60;;;;;;5041298;28;20029;-73
2023/07/08 12:04:32;;;;;;;3.35;3.05;;;24.90;70.50;;;;;;5038717;28;20451;-73
2023/07/08 12:07:23;;;;;;;3.92;2.97;;;25.00;71.80;;;;;;5039498;28;20037;-72
2023/07/08 12:10:12;;;;;;;3.40;2.95;;;25.00;68.80;;;;;;5038704;28;20036;-73
2023/07/08 12:12:42;;;;;;;4.40;3.17;;;25.00;69.80;;;;;;5043534;28;20507;-77
2023/07/08 12:15:32;;;;;;;3.42;2.88;;;25.00;69.90;;;;;;5036799;28;20075;-75
2023/07/08 12:18:19;;;;;;;3.38;3.08;;;25.10;70.30;;;;;;5041208;28;20037;-76
2023/07/08 12:20:48;;;;;;;3.10;2.70;;;25.20;70.90;;;;;;5040724;28;20083;-74
2023/07/08 12:23:20;;;;;;;3.78;2.75;;;25.20;69.90;;;;;;5039739;28;20072;-76
2023/07/08 12:25:47;;;;;;;3.20;2.90;;;25.00;67.70;;;;;;5037758;28;20091;-76
2023/07/08 12:28:15;;;;;;;3.38;2.70;;;24.90;67.90;;;;;;5041371;28;20524;-78
2023/07/08 12:30:43;;;;;;;4.35;3.08;;;24.90;68.90;;;;;;5039285;28;20437;-73
2023/07/08 12:33:14;;;;;;;2.75;2.55;;;24.90;69.40;;;;;;5041971;28;20037;-80
2023/07/08 12:35:42;;;;;;;3.13;2.83;;;25.00;65.70;;;;;;5039378;28;20399;-77
2023/07/08 12:38:21;;;;;;;3.10;2.78;;;25.10;63.80;;;;;;5039096;28;20052;-70
2023/07/08 12:40:47;;;;;;;3.35;2.70;;;24.90;61.50;;;;;;5042618;28;20043;-69
2023/07/08 12:43:13;;;;;;;2.63;2.40;;;24.80;63.40;;;;;;5044638;28;20477;-82
2023/07/08 12:45:39;;;;;;;2.92;2.50;;;24.90;65.40;;;;;;5044104;28;20033;-83
2023/07/08 12:48:05;;;;;;;3.33;3.03;;;25.00;65.90;;;;;;5047812;28;20048;-75
2023/07/08 12:50:31;;;;;;;2.30;2.13;;;25.00;64.20;;;;;;5079413;28;20118;-77
2023/07/08 12:52:57;;;;;;;2.40;2.20;;;25.10;64.80;;;;;;5047998;28;20079;-74